Time;durP1;ratioP1;P1;durP2;ratioP2;P2;SDS_P1;SDS_P2;PMS_P1;PMS_P2;Temp;Humidity;BMP_temperature;BMP_pressure;BME280_temperature;BME280_humidity;BME280_pressure;Samples;Min_cycle;Max_cycle;Signal;HPM_P1;HPM_P2
2024/02/06 00:02:12;;;;;;;35.22;16.75;;;;;;;-1.09;100.00;97172.41;5007972;28;20048;-74
2024/02/06 00:04:38;;;;;;;36.90;17.30;;;;;;;-0.94;100.00;97168.81;5002632;28;20042;-74
2024/02/06 00:07:05;;;;;;;31.05;17.05;;;;;;;-1.05;100.00;97164.59;5002878;28;20046;-74
2024/02/06 00:09:30;;;;;;;35.53;17.00;;;;;;;-0.96;100.00;97152.16;5019350;28;20041;-73
2024/02/06 00:11:56;;;;;;;36.70;17.85;;;;;;;-0.87;100.00;97145.09;5012631;28;20042;-75
2024/02/06 00:14:21;;;;;;;34.92;17.20;;;;;;;-0.85;100.00;97142.13;5020844;28;20586;-75
2024/02/06 00:16:47;;;;;;;38.70;16.75;;;;;;;-0.98;100.00;97138.19;5010406;28;20042;-75
2024/02/06 00:19:12;;;;;;;29.60;16.55;;;;;;;-1.01;100.00;97136.06;5009878;28;20321;-75
2024/02/06 00:21:37;;;;;;;33.28;17.58;;;;;;;-1.20;100.00;97142.13;5010186;28;20119;-75
2024/02/06 00:24:04;;;;;;;32.10;16.90;;;;;;;-1.05;100.00;97135.81;5013356;28;20072;-73
2024/02/06 00:26:29;;;;;;;36.97;16.75;;;;;;;-1.20;100.00;97136.75;5028334;28;20056;-74
2024/02/06 00:28:55;;;;;;;34.33;16.98;;;;;;;-1.25;100.00;97141.34;5022492;28;20033;-75
2024/02/06 00:31:20;;;;;;;32.05;16.13;;;;;;;-1.09;100.00;97142.06;5018619;28;20255;-73
2024/02/06 00:33:46;;;;;;;35.40;15.98;;;;;;;-0.98;100.00;97139.00;5009542;28;20416;-74
2024/02/06 00:36:11;;;;;;;34.05;17.98;;;;;;;-0.98;100.00;97127.44;5001615;28;20038;-73
2024/02/06 00:38:36;;;;;;;31.33;16.38;;;;;;;-0.87;100.00;97128.16;5005949;28;20038;-76
2024/02/06 00:41:02;;;;;;;34.97;17.23;;;;;;;-0.97;100.00;97134.44;4999744;28;20420;-72
2024/02/06 00:43:28;;;;;;;34.58;16.23;;;;;;;-0.98;100.00;97135.50;5016383;28;20042;-73
2024/02/06 00:45:53;;;;;;;34.50;16.48;;;;;;;-1.04;100.00;97133.97;5020489;28;20046;-74
2024/02/06 00:48:19;;;;;;;33.45;16.33;;;;;;;-1.08;100.00;97131.03;5002568;28;20088;-73
2024/02/06 00:50:45;;;;;;;33.13;14.77;;;;;;;-1.05;100.00;97140.41;5008243;28;20057;-72
2024/02/06 00:53:11;;;;;;;30.77;18.70;;;;;;;-0.93;100.00;97132.78;4999973;28;20030;-72
2024/02/06 00:55:36;;;;;;;33.42;15.57;;;;;;;-0.86;100.00;97137.84;4999636;28;20046;-71
2024/02/06 00:58:02;;;;;;;29.88;14.90;;;;;;;-0.71;100.00;97147.66;4998336;28;20042;-71
2024/02/06 01:00:27;;;;;;;31.25;15.18;;;;;;;-0.72;100.00;97140.66;5000985;28;20515;-71
2024/02/06 01:02:53;;;;;;;30.30;16.08;;;;;;;-0.99;100.00;97144.66;5015991;28;20041;-72
2024/02/06 01:05:18;;;;;;;28.25;15.55;;;;;;;-1.19;100.00;97149.09;4995643;28;20072;-75
2024/02/06 01:07:44;;;;;;;30.08;15.00;;;;;;;-1.24;100.00;97145.63;5001610;28;20042;-74
2024/02/06 01:10:09;;;;;;;26.20;14.48;;;;;;;-0.99;100.00;97142.78;4999649;28;20116;-73
2024/02/06 01:12:34;;;;;;;30.67;15.23;;;;;;;-1.17;100.00;97136.19;5005014;28;20132;-72
2024/02/06 01:15:00;;;;;;;30.33;15.45;;;;;;;-1.28;100.00;97131.16;5013003;28;20093;-72
2024/02/06 01:17:26;;;;;;;31.75;15.00;;;;;;;-1.25;100.00;97133.28;5007570;28;20038;-73
2024/02/06 01:19:52;;;;;;;32.22;15.05;;;;;;;-1.40;100.00;97135.00;5021478;28;20176;-74
2024/02/06 01:22:17;;;;;;;37.35;16.10;;;;;;;-1.50;100.00;97128.88;4993036;28;20048;-73
2024/02/06 01:24:43;;;;;;;33.78;16.20;;;;;;;-1.55;100.00;97137.75;5023824;28;20045;-74
2024/02/06 01:27:08;;;;;;;28.70;15.18;;;;;;;-1.59;100.00;97132.13;5014801;28;20049;-74
2024/02/06 01:29:34;;;;;;;37.92;16.77;;;;;;;-1.61;100.00;97137.00;5004580;28;20532;-75
2024/02/06 01:32:00;;;;;;;31.50;15.07;;;;;;;-1.58;100.00;97131.06;5006472;28;20042;-75
2024/02/06 01:34:25;;;;;;;34.40;18.15;;;;;;;-1.60;100.00;97133.22;5012206;28;20457;-75
2024/02/06 01:36:50;;;;;;;34.00;15.68;;;;;;;-1.58;100.00;97135.66;5017334;28;20042;-75
2024/02/06 01:39:17;;;;;;;35.63;16.10;;;;;;;-1.60;100.00;97132.44;5013164;28;20037;-74
2024/02/06 01:41:43;;;;;;;35.22;17.52;;;;;;;-1.65;100.00;97130.56;5008782;28;20053;-73
2024/02/06 01:44:08;;;;;;;32.22;16.90;;;;;;;-1.51;100.00;97132.63;4995473;28;20523;-72
2024/02/06 01:46:34;;;;;;;35.78;16.92;;;;;;;-1.52;100.00;97133.72;4999691;28;20045;-71
2024/02/06 01:49:01;;;;;;;35.47;16.80;;;;;;;-1.55;100.00;97130.53;4999346;28;20461;-73
2024/02/06 01:51:29;;;;;;;41.83;18.08;;;;;;;-1.46;100.00;97127.22;5014587;28;20042;-71
2024/02/06 01:53:56;;;;;;;32.63;16.73;;;;;;;-1.43;100.00;97121.31;5004285;28;20053;-73
2024/02/06 01:56:22;;;;;;;37.95;17.58;;;;;;;-1.53;100.00;97119.50;5001495;28;20502;-73
2024/02/06 01:58:48;;;;;;;34.13;16.63;;;;;;;-1.55;100.00;97122.47;5001787;28;20235;-73
2024/02/06 02:01:14;;;;;;;35.03;16.17;;;;;;;-1.75;100.00;97125.25;4998201;28;20099;-73
2024/02/06 02:03:40;;;;;;;28.98;15.52;;;;;;;-1.66;100.00;97123.59;5001920;28;20484;-73
2024/02/06 02:06:05;;;;;;;36.35;16.63;;;;;;;-1.71;100.00;97118.25;4998288;28;20065;-73
2024/02/06 02:08:34;;;;;;;33.15;15.23;;;;;;;-1.67;100.00;97118.50;5008198;28;20463;-73
2024/02/06 02:11:01;;;;;;;40.70;16.85;;;;;;;-1.44;100.00;97122.38;5005912;28;20050;-72
2024/02/06 02:13:26;;;;;;;36.92;17.45;;;;;;;-1.51;100.00;97113.84;4995213;28;20044;-72
2024/02/06 02:15:53;;;;;;;32.55;17.58;;;;;;;-1.50;100.00;97118.94;5029956;28;20435;-73
2024/02/06 02:18:18;;;;;;;38.40;17.17;;;;;;;-1.51;100.00;97116.50;5013384;28;20048;-74
2024/02/06 02:20:44;;;;;;;34.47;17.10;;;;;;;-1.57;100.00;97115.75;5025672;28;20033;-73
2024/02/06 02:23:09;;;;;;;37.03;19.65;;;;;;;-1.59;100.00;97107.97;5014821;28;20056;-75
2024/02/06 02:25:35;;;;;;;41.10;19.40;;;;;;;-1.53;100.00;97106.06;5021873;28;20069;-74
2024/02/06 02:28:02;;;;;;;39.67;18.33;;;;;;;-1.48;100.00;97100.66;5007757;28;20113;-74
2024/02/06 02:30:28;;;;;;;36.22;17.00;;;;;;;-1.45;100.00;97105.47;5017438;28;20060;-75
2024/02/06 02:32:55;;;;;;;34.97;16.90;;;;;;;-1.46;100.00;97095.00;4993810;28;20120;-73
2024/02/06 02:35:29;;;;;;;34.35;16.83;;;;;;;-1.45;100.00;97102.78;4985174;28;20049;-75
2024/02/06 02:37:55;;;;;;;36.80;17.25;;;;;;;-1.39;100.00;97096.31;4989980;28;20412;-76
2024/02/06 02:40:20;;;;;;;33.55;17.75;;;;;;;-1.44;100.00;97092.81;4986650;28;20081;-75
2024/02/06 02:42:45;;;;;;;35.58;17.90;;;;;;;-1.48;100.00;97091.78;5011289;28;20045;-76
2024/02/06 02:45:11;;;;;;;40.33;19.13;;;;;;;-1.52;100.00;97096.91;4985700;28;20046;-75
2024/02/06 02:47:36;;;;;;;38.10;20.05;;;;;;;-1.39;100.00;97092.78;4988831;28;20056;-76
2024/02/06 02:50:02;;;;;;;53.17;23.20;;;;;;;-0.91;100.00;97089.47;4986982;28;20042;-72
2024/02/06 02:52:27;;;;;;;46.22;20.02;;;;;;;-0.87;100.00;97088.63;5005434;28;20046;-74
2024/02/06 02:54:52;;;;;;;38.80;20.05;;;;;;;-0.89;100.00;97088.09;4992716;28;20053;-75
2024/02/06 02:57:18;;;;;;;46.75;22.30;;;;;;;-0.65;100.00;97085.47;4984608;28;20042;-75
2024/02/06 02:59:43;;;;;;;43.13;20.75;;;;;;;-0.76;100.00;97089.31;4988695;28;20094;-74
2024/02/06 03:02:09;;;;;;;36.85;18.70;;;;;;;-0.82;100.00;97093.94;4981681;28;20043;-73
2024/02/06 03:04:34;;;;;;;35.92;17.95;;;;;;;-0.96;100.00;97084.94;4987949;28;20042;-73
2024/02/06 03:06:59;;;;;;;38.53;17.20;;;;;;;-1.16;100.00;97086.72;4989841;28;20109;-75
2024/02/06 03:09:25;;;;;;;33.78;18.10;;;;;;;-1.30;100.00;97083.06;4988648;28;20039;-75
2024/02/06 03:11:51;;;;;;;35.97;18.13;;;;;;;-1.35;100.00;97080.44;4987388;28;20080;-76
2024/02/06 03:14:16;;;;;;;33.85;15.90;;;;;;;-1.31;100.00;97076.09;5001942;28;20527;-76
2024/02/06 03:16:41;;;;;;;33.10;17.20;;;;;;;-1.39;100.00;97077.50;5004024;28;20050;-76
2024/02/06 03:19:07;;;;;;;35.47;17.73;;;;;;;-1.38;100.00;97079.09;4998657;28;20046;-74
2024/02/06 03:21:33;;;;;;;29.13;15.60;;;;;;;-1.40;100.00;97078.56;5000571;28;20137;-73
2024/02/06 03:23:59;;;;;;;34.63;16.98;;;;;;;-1.59;100.00;97072.25;4988572;28;20629;-75
2024/02/06 03:26:25;;;;;;;31.50;15.80;;;;;;;-1.73;100.00;97075.56;4981461;28;20098;-74
2024/02/06 03:28:51;;;;;;;28.20;14.90;;;;;;;-1.73;100.00;97074.75;5001142;28;20038;-75
2024/02/06 03:31:16;;;;;;;26.35;14.98;;;;;;;-1.76;100.00;97061.88;5003898;28;20046;-74
2024/02/06 03:33:42;;;;;;;32.05;14.73;;;;;;;-1.70;100.00;97068.03;5027546;28;20045;-73
2024/02/06 03:36:07;;;;;;;27.35;14.35;;;;;;;-1.79;100.00;97063.22;5020344;28;20048;-74
2024/02/06 03:38:33;;;;;;;29.00;14.55;;;;;;;-1.65;100.00;97071.47;4992814;28;20053;-75
2024/02/06 03:40:58;;;;;;;25.20;13.70;;;;;;;-1.58;100.00;97068.50;4987460;28;20040;-75
2024/02/06 03:43:24;;;;;;;32.08;14.50;;;;;;;-1.58;100.00;97063.91;4986850;28;20127;-74
2024/02/06 03:45:49;;;;;;;31.02;16.20;;;;;;;-1.67;100.00;97064.78;5005122;28;20073;-75
2024/02/06 03:48:15;;;;;;;30.70;15.63;;;;;;;-1.79;100.00;97063.22;4989623;28;20042;-74
2024/02/06 03:50:41;;;;;;;33.15;15.23;;;;;;;-1.78;100.00;97064.84;5006325;28;20160;-75
2024/02/06 03:53:08;;;;;;;26.48;13.20;;;;;;;-1.82;100.00;97062.97;5010137;28;20145;-74
2024/02/06 03:55:33;;;;;;;26.13;13.43;;;;;;;-1.77;100.00;97069.13;4999035;28;20046;-76
2024/02/06 03:57:59;;;;;;;27.98;14.15;;;;;;;-1.78;100.00;97069.44;4992344;28;20046;-75
2024/02/06 04:00:24;;;;;;;30.33;14.45;;;;;;;-1.76;100.00;97065.38;4984864;28;20109;-76
2024/02/06 04:02:49;;;;;;;24.48;12.77;;;;;;;-1.79;100.00;97065.13;4985588;28;20043;-75
2024/02/06 04:05:15;;;;;;;32.83;15.20;;;;;;;-1.86;100.00;97061.94;4981655;28;20069;-75
2024/02/06 04:07:40;;;;;;;24.17;14.20;;;;;;;-1.80;100.00;97069.69;4983911;28;20065;-75
2024/02/06 04:10:06;;;;;;;27.60;14.40;;;;;;;-1.71;100.00;97066.41;4983773;28;20043;-73
2024/02/06 04:12:32;;;;;;;27.02;13.85;;;;;;;-1.69;100.00;97064.25;4984139;28;20107;-75
2024/02/06 04:14:58;;;;;;;33.15;15.85;;;;;;;-1.83;100.00;97059.50;4986581;28;20133;-76
2024/02/06 04:17:23;;;;;;;26.75;14.32;;;;;;;-1.85;100.00;97066.25;4980227;28;20054;-75
2024/02/06 04:19:49;;;;;;;30.45;15.18;;;;;;;-1.89;100.00;97066.00;4985861;28;20042;-76
2024/02/06 04:22:14;;;;;;;26.80;14.32;;;;;;;-1.94;100.00;97069.50;4998198;28;20053;-76
2024/02/06 04:24:40;;;;;;;33.67;14.75;;;;;;;-2.12;100.00;97073.59;5013548;28;20117;-74
2024/02/06 04:27:05;;;;;;;30.33;15.63;;;;;;;-2.14;100.00;97075.78;4980590;28;20046;-76
2024/02/06 04:29:30;;;;;;;32.30;16.70;;;;;;;-2.12;100.00;97067.44;4987733;28;20525;-77
2024/02/06 04:31:56;;;;;;;31.38;15.13;;;;;;;-2.16;100.00;97064.50;4989057;28;20045;-77
2024/02/06 04:34:21;;;;;;;32.33;15.32;;;;;;;-2.13;100.00;97071.19;4982461;28;20042;-77
2024/02/06 04:36:47;;;;;;;28.63;14.80;;;;;;;-2.03;100.00;97075.72;4992728;28;20042;-76
2024/02/06 04:39:13;;;;;;;30.42;15.70;;;;;;;-2.03;100.00;97065.00;4987235;28;20049;-76
2024/02/06 04:41:38;;;;;;;33.47;16.90;;;;;;;-1.93;100.00;97073.81;4988013;28;20498;-74
2024/02/06 04:44:04;;;;;;;30.02;16.08;;;;;;;-2.02;100.00;97075.44;4983240;28;20046;-70
2024/02/06 04:46:30;;;;;;;29.80;16.38;;;;;;;-1.89;100.00;97081.28;4985088;28;20042;-75
2024/02/06 04:48:55;;;;;;;32.92;17.10;;;;;;;-2.02;100.00;97064.69;4994013;28;20096;-75
2024/02/06 04:51:21;;;;;;;32.15;16.05;;;;;;;-1.95;100.00;97078.63;5005130;28;20270;-74
2024/02/06 04:53:47;;;;;;;62.58;21.92;;;;;;;-1.70;100.00;97068.03;5011114;28;20081;-74
2024/02/06 04:56:14;;;;;;;47.50;18.08;;;;;;;-1.01;100.00;97063.47;5000985;28;20048;-75
2024/02/06 04:58:40;;;;;;;61.55;21.95;;;;;;;-0.04;100.00;97058.94;5000630;28;20042;-76
2024/02/06 05:01:06;;;;;;;40.83;17.65;;;;;;;0.02;100.00;97065.03;5005797;28;20056;-76
2024/02/06 05:03:31;;;;;;;27.83;15.57;;;;;;;-0.29;100.00;97065.44;5007132;28;20104;-76
2024/02/06 05:05:57;;;;;;;29.02;15.57;;;;;;;-0.41;100.00;97061.25;5001250;28;20046;-75
2024/02/06 05:08:22;;;;;;;28.58;14.48;;;;;;;-0.64;100.00;97062.84;4996630;28;20532;-76
2024/02/06 05:10:47;;;;;;;30.17;14.13;;;;;;;-0.94;100.00;97066.63;5032068;28;20046;-75
2024/02/06 05:13:13;;;;;;;25.25;13.60;;;;;;;-1.10;100.00;97067.84;4998515;28;20477;-75
2024/02/06 05:15:39;;;;;;;27.52;13.93;;;;;;;-1.18;100.00;97069.28;5003730;28;20132;-76
2024/02/06 05:18:05;;;;;;;25.48;13.25;;;;;;;-1.23;100.00;97063.94;4996097;28;20061;-72
2024/02/06 05:20:30;;;;;;;22.95;13.65;;;;;;;-1.21;100.00;97065.25;5002058;28;20034;-76
2024/02/06 05:22:55;;;;;;;25.67;13.13;;;;;;;-1.29;100.00;97060.47;5003879;28;20053;-76
2024/02/06 05:25:21;;;;;;;24.30;13.18;;;;;;;-1.28;100.00;97055.91;4994275;28;20442;-76
2024/02/06 05:27:46;;;;;;;23.10;12.88;;;;;;;-1.18;100.00;97058.50;5005783;28;20087;-75
2024/02/06 05:30:12;;;;;;;32.42;13.68;;;;;;;-1.01;100.00;97063.47;5019686;28;20057;-75
2024/02/06 05:32:37;;;;;;;22.75;12.48;;;;;;;-0.90;100.00;97061.50;4982687;28;20057;-76
2024/02/06 05:35:04;;;;;;;38.45;14.85;;;;;;;-0.84;100.00;97052.31;4994952;28;20095;-75
2024/02/06 05:37:30;;;;;;;34.58;16.58;;;;;;;-0.77;100.00;97044.69;4997875;28;20072;-76
2024/02/06 05:39:57;;;;;;;36.22;15.73;;;;;;;-0.66;100.00;97051.56;5004647;28;20136;-76
2024/02/06 05:42:22;;;;;;;31.92;14.70;;;;;;;-0.68;100.00;97050.25;4996004;28;20057;-76
2024/02/06 05:44:48;;;;;;;29.08;15.27;;;;;;;-0.66;100.00;97045.41;5000340;28;20038;-76
2024/02/06 05:47:13;;;;;;;33.08;14.20;;;;;;;-0.60;100.00;97049.63;4995554;28;20042;-75
2024/02/06 05:49:39;;;;;;;32.42;14.80;;;;;;;-0.57;100.00;97054.44;5015252;28;20052;-75
2024/02/06 05:52:05;;;;;;;27.70;13.43;;;;;;;-1.50;100.00;97059.03;4995224;28;20128;-76
2024/02/06 05:54:30;;;;;;;26.88;13.25;;;;;;;-2.03;100.00;97060.41;4999784;28;20543;-76
2024/02/06 05:56:56;;;;;;;27.35;13.48;;;;;;;-2.16;100.00;97066.38;5006089;28;20042;-75
2024/02/06 05:59:23;;;;;;;27.73;13.25;;;;;;;-2.19;100.00;97059.69;4997595;28;20444;-76
2024/02/06 06:01:49;;;;;;;32.67;13.68;;;;;;;-1.95;100.00;97056.34;4998881;28;20384;-75
2024/02/06 06:04:15;;;;;;;32.95;15.27;;;;;;;-1.89;100.00;97068.69;5003805;28;20037;-75
2024/02/06 06:06:40;;;;;;;29.88;14.75;;;;;;;-1.88;100.00;97061.41;5022034;28;20045;-77
2024/02/06 06:09:07;;;;;;;31.55;14.07;;;;;;;-1.84;100.00;97065.94;5009456;28;20038;-77
2024/02/06 06:11:32;;;;;;;29.85;14.32;;;;;;;-1.77;100.00;97062.97;5002970;28;20046;-76
2024/02/06 06:13:58;;;;;;;34.97;17.02;;;;;;;-1.57;100.00;97059.34;5016223;28;20200;-76
2024/02/06 06:16:23;;;;;;;60.85;32.85;;;;;;;-1.28;100.00;97063.97;4997067;28;20037;-74
2024/02/06 06:18:48;;;;;;;53.30;23.40;;;;;;;-1.23;100.00;97063.94;5029182;28;20061;-75
2024/02/06 06:21:14;;;;;;;35.92;19.13;;;;;;;-1.13;100.00;97069.22;5020855;28;20044;-76
2024/02/06 06:23:39;;;;;;;26.70;14.02;;;;;;;-1.07;100.00;97070.78;4999826;28;20046;-76
2024/02/06 06:26:08;;;;;;;33.83;14.85;;;;;;;-1.09;100.00;97074.84;4996333;28;20053;-75
2024/02/06 06:28:33;;;;;;;31.02;14.35;;;;;;;-1.14;100.00;97070.31;4997773;28;20041;-75
2024/02/06 06:30:59;;;;;;;27.20;13.98;;;;;;;-1.20;100.00;97074.13;4996773;28;20597;-76
2024/02/06 06:33:24;;;;;;;27.65;14.48;;;;;;;-1.14;100.00;97070.31;4992211;28;20128;-75
2024/02/06 06:35:49;;;;;;;25.00;13.00;;;;;;;-1.06;100.00;97072.41;4998970;28;20133;-75
2024/02/06 06:38:15;;;;;;;27.65;12.48;;;;;;;-1.00;100.00;97073.94;5012887;28;20042;-74
2024/02/06 06:40:40;;;;;;;28.85;11.63;;;;;;;-0.86;100.00;97078.69;5018396;28;20045;-76
2024/02/06 06:43:06;;;;;;;22.55;11.05;;;;;;;-0.45;100.00;97072.88;5013887;28;20056;-75
2024/02/06 06:45:31;;;;;;;24.92;11.35;;;;;;;-0.08;100.00;97074.84;5018762;28;20528;-76
2024/02/06 06:47:57;;;;;;;28.08;11.90;;;;;;;0.18;100.00;97080.75;5001337;28;20042;-76
2024/02/06 06:50:22;;;;;;;29.55;11.50;;;;;;;0.13;100.00;97074.63;4987594;28;20054;-76
2024/02/06 06:52:47;;;;;;;31.92;12.80;;;;;;;0.21;100.00;97083.94;4991215;28;20421;-77
2024/02/06 06:55:13;;;;;;;23.13;11.52;;;;;;;0.17;100.00;97070.25;4998794;28;20046;-76
2024/02/06 06:57:42;;;;;;;23.70;11.25;;;;;;;0.08;100.00;97083.56;4997415;28;20160;-76
2024/02/06 07:00:11;;;;;;;22.00;11.48;;;;;;;0.08;100.00;97085.47;4997025;28;20068;-76
2024/02/06 07:02:36;;;;;;;26.05;11.15;;;;;;;-0.01;100.00;97080.69;5029971;28;20041;-76
2024/02/06 07:05:02;;;;;;;26.35;10.82;;;;;;;-0.06;100.00;97080.75;5023587;28;20088;-73
2024/02/06 07:07:28;;;;;;;21.60;10.82;;;;;;;0.02;100.00;97089.28;4999890;28;20042;-76
2024/02/06 07:09:53;;;;;;;27.38;11.05;;;;;;;0.08;100.00;97088.94;5008227;28;20040;-77
2024/02/06 07:12:18;;;;;;;29.80;11.18;;;;;;;0.16;100.00;97091.00;5018529;28;20092;-77
2024/02/06 07:14:44;;;;;;;25.55;11.15;;;;;;;0.42;100.00;97089.84;5019717;28;20639;-75
2024/02/06 07:17:10;;;;;;;22.88;10.13;;;;;;;0.88;100.00;97091.84;5012108;28;20042;-76
2024/02/06 07:19:35;;;;;;;22.23;9.43;;;;;;;0.92;100.00;97101.78;5012011;28;20345;-74
2024/02/06 07:22:01;;;;;;;24.65;9.00;;;;;;;0.97;100.00;97098.16;5020898;28;20049;-74
2024/02/06 07:24:26;;;;;;;23.00;9.77;;;;;;;1.10;100.00;97096.66;5013458;28;20076;-76
2024/02/06 07:26:52;;;;;;;22.02;9.13;;;;;;;1.45;100.00;97103.31;5027353;28;20044;-77
2024/02/06 07:29:18;;;;;;;21.02;8.35;;;;;;;1.68;100.00;97106.16;5001286;28;20054;-76
2024/02/06 07:31:44;;;;;;;21.58;9.68;;;;;;;1.80;100.00;97106.47;5017438;28;20128;-76
2024/02/06 07:34:09;;;;;;;22.70;9.50;;;;;;;2.00;100.00;97116.06;4998651;28;20133;-76
2024/02/06 07:36:35;;;;;;;19.40;8.63;;;;;;;2.25;100.00;97113.94;5015437;28;20044;-75
2024/02/06 07:39:00;;;;;;;20.60;8.65;;;;;;;2.47;100.00;97115.91;5019934;28;20038;-75
2024/02/06 07:41:26;;;;;;;24.05;8.80;;;;;;;2.71;100.00;97118.34;4992748;28;20033;-76
2024/02/06 07:43:52;;;;;;;25.05;9.05;;;;;;;3.17;100.00;97117.28;5008123;28;20042;-76
2024/02/06 07:46:18;;;;;;;18.95;8.32;;;;;;;3.82;100.00;97112.38;5002016;28;20047;-76
2024/02/06 07:48:44;;;;;;;19.48;8.63;;;;;;;4.07;100.00;97123.63;4981286;28;20045;-74
2024/02/06 07:51:11;;;;;;;19.23;9.65;;;;;;;4.04;100.00;97113.44;4976891;28;20038;-74
2024/02/06 07:53:36;;;;;;;21.55;9.77;;;;;;;4.41;100.00;97117.50;4982778;28;20104;-74
2024/02/06 07:56:04;;;;;;;21.17;8.63;;;;;;;4.77;100.00;97114.53;4993052;28;20050;-71
2024/02/06 07:58:30;;;;;;;15.13;8.75;;;;;;;4.80;100.00;97113.09;4996316;28;20042;-76
2024/02/06 08:00:55;;;;;;;20.20;7.20;;;;;;;4.75;100.00;97119.47;4990242;28;20073;-75
2024/02/06 08:03:21;;;;;;;15.00;7.38;;;;;;;5.08;100.00;97124.44;4976711;28;20085;-75
2024/02/06 08:05:46;;;;;;;16.80;7.35;;;;;;;5.59;100.00;97121.94;4982578;28;20042;-76
2024/02/06 08:08:11;;;;;;;19.77;6.90;;;;;;;5.18;100.00;97123.28;4991955;28;20050;-74
2024/02/06 08:10:37;;;;;;;13.57;6.18;;;;;;;5.46;100.00;97121.03;4982539;28;20050;-76
2024/02/06 08:13:02;;;;;;;17.65;6.47;;;;;;;6.21;100.00;97120.66;4984418;28;20039;-73
2024/02/06 08:15:28;;;;;;;14.77;6.22;;;;;;;6.58;100.00;97126.34;4987821;28;20061;-77
2024/02/06 08:17:53;;;;;;;17.83;6.35;;;;;;;7.24;100.00;97125.69;5007996;28;20369;-74
2024/02/06 08:20:19;;;;;;;15.95;7.15;;;;;;;7.04;100.00;97119.13;4995425;28;20117;-76
2024/02/06 08:22:49;;;;;;;14.55;6.82;;;;;;;7.01;100.00;97129.91;4983685;28;20082;-75
2024/02/06 08:25:22;;;;;;;17.00;7.95;;;;;;;6.91;100.00;97122.91;4977465;28;20042;-77
2024/02/06 08:27:48;;;;;;;13.40;8.00;;;;;;;7.23;100.00;97123.31;4998542;28;20038;-73
2024/02/06 08:30:13;;;;;;;20.25;7.78;;;;;;;7.90;100.00;97136.91;4977108;28;20053;-74
2024/02/06 08:32:39;;;;;;;20.35;7.10;;;;;;;8.33;100.00;97135.59;4980774;28;20038;-75
2024/02/06 08:35:04;;;;;;;16.17;6.60;;;;;;;9.21;95.10;97133.19;4990157;28;20179;-75
2024/02/06 08:37:31;;;;;;;15.20;5.88;;;;;;;9.21;93.81;97127.72;4987058;28;20042;-76
2024/02/06 08:39:57;;;;;;;14.73;5.95;;;;;;;9.77;93.63;97130.41;4978410;28;20053;-75
2024/02/06 08:42:22;;;;;;;28.08;7.10;;;;;;;9.98;91.74;97136.81;4990731;28;20499;-76
2024/02/06 08:44:48;;;;;;;18.48;5.93;;;;;;;10.52;88.28;97134.25;4982553;28;20076;-74
2024/02/06 08:47:13;;;;;;;20.77;6.88;;;;;;;10.96;76.18;97127.81;4981899;28;20046;-75
2024/02/06 08:49:39;;;;;;;25.60;6.95;;;;;;;10.87;76.49;97128.00;5005812;28;20038;-76
2024/02/06 08:52:04;;;;;;;18.73;6.72;;;;;;;10.88;75.76;97132.34;4984817;28;20389;-72
2024/02/06 08:54:30;;;;;;;19.20;6.53;;;;;;;10.66;78.33;97128.34;4984469;28;20031;-73
2024/02/06 08:56:57;;;;;;;20.98;6.55;;;;;;;10.65;77.92;97131.44;4981652;28;20042;-75
2024/02/06 08:59:23;;;;;;;25.00;8.68;;;;;;;10.81;78.62;97129.44;4976826;28;21059;-72
2024/02/06 09:01:48;;;;;;;12.77;5.95;;;;;;;12.14;71.80;97134.81;4977999;28;20033;-74
2024/02/06 09:04:14;;;;;;;18.42;6.03;;;;;;;11.65;69.69;97140.97;4976658;28;20053;-74
2024/02/06 09:06:40;;;;;;;17.65;6.22;;;;;;;11.82;69.97;97129.50;4981938;28;20046;-75
2024/02/06 09:09:05;;;;;;;17.42;6.60;;;;;;;11.84;66.21;97126.41;4981612;28;20041;-75
2024/02/06 09:11:32;;;;;;;22.75;7.03;;;;;;;12.28;68.03;97141.69;4981205;28;20456;-75
2024/02/06 09:13:57;;;;;;;17.88;6.18;;;;;;;13.26;62.55;97134.50;4980073;28;20046;-74
2024/02/06 09:16:23;;;;;;;18.30;6.05;;;;;;;13.29;61.05;97143.97;4975138;28;20902;-75
2024/02/06 09:18:49;;;;;;;13.23;5.13;;;;;;;12.73;62.43;97134.56;4983385;28;20045;-75
2024/02/06 09:21:18;;;;;;;12.73;5.18;;;;;;;13.34;62.06;97143.66;4977061;28;20771;-75
2024/02/06 09:23:44;;;;;;;19.35;6.32;;;;;;;12.36;66.62;97137.91;4982541;28;20050;-74
2024/02/06 09:26:10;;;;;;;11.25;6.32;;;;;;;10.49;81.15;97132.22;4978198;28;20066;-76
2024/02/06 09:28:36;;;;;;;16.88;6.65;;;;;;;10.81;79.97;97128.66;4981823;28;20038;-74
2024/02/06 09:31:02;;;;;;;15.45;7.68;;;;;;;11.75;77.66;97131.34;4990669;28;20616;-71
2024/02/06 09:33:28;;;;;;;12.68;6.35;;;;;;;12.74;68.50;97150.69;4979757;28;20104;-75
2024/02/06 09:35:53;;;;;;;14.20;5.95;;;;;;;12.91;65.64;97149.38;4979762;28;20115;-71
2024/02/06 09:38:18;;;;;;;15.50;7.15;;;;;;;11.76;71.52;97143.91;4975104;28;20034;-74
2024/02/06 09:40:46;;;;;;;14.07;6.32;;;;;;;11.46;72.49;97142.53;5014887;28;20095;-74
2024/02/06 09:43:13;;;;;;;18.77;7.38;;;;;;;11.84;71.96;97146.41;4997312;28;20044;-72
2024/02/06 09:45:39;;;;;;;19.73;6.28;;;;;;;12.16;71.44;97143.47;5015502;28;20042;-73
2024/02/06 09:48:06;;;;;;;16.15;6.40;;;;;;;11.17;76.72;97138.44;4994806;28;20124;-75
2024/02/06 09:50:31;;;;;;;18.02;6.70;;;;;;;11.67;74.79;97142.19;5000527;28;20045;-74
2024/02/06 09:52:59;;;;;;;14.60;7.50;;;;;;;12.18;72.37;97149.41;5001085;28;20042;-75
2024/02/06 09:55:25;;;;;;;19.77;6.97;;;;;;;11.69;73.43;97141.81;4994130;28;20126;-76
2024/02/06 09:57:52;;;;;;;18.02;6.90;;;;;;;11.80;74.89;97142.81;4999699;28;20102;-76
2024/02/06 10:00:19;;;;;;;14.85;6.90;;;;;;;12.11;72.47;97137.50;4994683;28;20053;-73
2024/02/06 10:02:48;;;;;;;21.27;7.03;;;;;;;11.48;75.28;97144.94;5003428;28;20041;-75
2024/02/06 10:05:20;;;;;;;13.20;7.10;;;;;;;10.92;75.06;97148.06;5009076;28;20129;-75
2024/02/06 10:07:47;;;;;;;22.77;7.60;;;;;;;11.51;75.03;97146.19;5013480;28;20104;-74
2024/02/06 10:10:14;;;;;;;14.80;7.72;;;;;;;11.33;76.48;97149.34;5010368;28;20045;-74
2024/02/06 10:12:42;;;;;;;17.80;6.93;;;;;;;12.06;71.85;97157.81;5017096;28;20030;-73
2024/02/06 10:15:10;;;;;;;20.00;7.32;;;;;;;11.74;73.17;97148.94;4999487;28;20042;-73
2024/02/06 10:17:39;;;;;;;15.88;7.43;;;;;;;11.77;73.44;97151.75;5002800;28;20042;-73
2024/02/06 10:20:08;;;;;;;23.58;8.85;;;;;;;11.06;76.66;97149.19;4998532;28;20072;-74
2024/02/06 10:22:33;;;;;;;16.92;8.45;;;;;;;11.38;75.08;97164.69;5002186;28;20396;-74
2024/02/06 10:25:00;;;;;;;19.55;8.88;;;;;;;10.79;79.06;97161.88;5004085;28;20049;-74
2024/02/06 10:27:25;;;;;;;18.15;8.50;;;;;;;10.37;83.14;97162.47;5002586;28;20113;-73
2024/02/06 10:29:59;;;;;;;23.00;9.23;;;;;;;9.81;88.85;97159.81;5017833;28;20046;-72
2024/02/06 10:32:32;;;;;;;20.20;8.27;;;;;;;10.24;87.24;97169.13;4998868;28;20053;-75
2024/02/06 10:35:07;;;;;;;21.75;8.50;;;;;;;10.37;88.24;97159.75;5003033;28;20103;-74
2024/02/06 10:37:37;;;;;;;22.38;9.02;;;;;;;10.68;84.91;97158.13;4996994;28;20038;-72
2024/02/06 10:40:07;;;;;;;20.73;8.98;;;;;;;10.97;81.22;97161.50;4987405;28;20042;-70
2024/02/06 10:42:34;;;;;;;15.52;7.75;;;;;;;11.52;78.71;97161.47;5003235;28;20040;-75
2024/02/06 10:44:59;;;;;;;22.40;8.35;;;;;;;12.65;72.16;97157.59;4989585;28;20046;-74
2024/02/06 10:47:25;;;;;;;18.45;8.07;;;;;;;11.53;74.80;97149.34;4981342;28;20049;-73
2024/02/06 10:50:04;;;;;;;13.77;7.40;;;;;;;10.65;84.33;97142.38;4985548;28;20041;-74
2024/02/06 10:52:30;;;;;;;16.30;7.82;;;;;;;10.37;87.32;97140.56;4982774;28;20118;-75
2024/02/06 10:54:55;;;;;;;14.82;6.97;;;;;;;10.01;90.27;97145.13;4983449;28;20503;-74
2024/02/06 10:57:25;;;;;;;17.27;7.80;;;;;;;10.44;87.41;97139.94;4979657;28;20057;-74
2024/02/06 11:00:11;;;;;;;23.27;8.15;;;;;;;10.41;88.46;97140.66;4984211;28;20553;-73
2024/02/06 11:02:41;;;;;;;13.13;7.32;;;;;;;10.60;86.15;97134.44;5015594;28;20065;-74
2024/02/06 11:05:09;;;;;;;;;;;;;;;9.95;91.63;97130.09;5003630;28;20101;-75
2024/02/06 11:07:50;;;;;;;17.20;7.53;;;;;;;10.43;88.32;97119.19;5017600;28;19955;-75
2024/02/06 11:10:20;;;;;;;12.93;6.22;;;;;;;10.26;91.30;97118.38;5003556;28;20042;-74